createdAt,value
2022-10-20T00:00:30.246Z,5.94
2022-10-20T00:05:32.324Z,5.96
2022-10-20T00:10:34.302Z,5.93
2022-10-20T00:15:36.349Z,5.92
2022-10-20T00:20:40.569Z,5.91
2022-10-20T00:25:42.513Z,5.89
2022-10-20T00:30:44.418Z,5.62
2022-10-20T00:35:46.357Z,5.72
2022-10-20T00:40:54.896Z,5.83
2022-10-20T00:45:58.539Z,5.84
2022-10-20T00:51:00.496Z,5.79
2022-10-20T00:56:02.881Z,5.68
2022-10-20T01:01:05.200Z,5.54
2022-10-20T01:06:08.341Z,5.65
2022-10-20T01:11:10.339Z,5.67
2022-10-20T01:16:46.741Z,5.55
2022-10-20T01:22:27.127Z,5.62
2022-10-20T01:27:49.309Z,5.51
2022-10-20T01:32:56.799Z,5.48
2022-10-20T01:38:28.724Z,5.50
2022-10-20T01:43:35.744Z,5.46
2022-10-20T01:48:40.400Z,5.31
2022-10-20T01:53:42.377Z,5.41
2022-10-20T01:58:53.788Z,5.36
2022-10-20T02:04:01.593Z,5.35
2022-10-20T02:09:13.161Z,5.28
2022-10-20T02:14:18.452Z,5.27
2022-10-20T02:19:26.459Z,5.22
2022-10-20T02:24:32.139Z,5.17
2022-10-20T02:29:40.507Z,5.12
2022-10-20T02:34:43.042Z,5.08
2022-10-20T02:39:45.007Z,5.08
2022-10-20T02:44:47.007Z,5.11
2022-10-20T02:49:49.250Z,5.02
2022-10-20T02:54:51.128Z,5.07
2022-10-20T02:59:53.302Z,5.01
2022-10-20T03:04:55.464Z,5.02
2022-10-20T03:09:57.513Z,5.03
2022-10-20T03:14:59.404Z,5.03
2022-10-20T03:20:01.333Z,4.76
2022-10-20T03:25:04.004Z,4.90
2022-10-20T03:30:06.543Z,4.79
2022-10-20T03:35:08.854Z,4.91
2022-10-20T03:40:10.939Z,4.87
2022-10-20T03:45:15.027Z,4.86
2022-10-20T03:50:19.816Z,4.86
2022-10-20T03:55:21.851Z,4.81
2022-10-20T04:00:24.045Z,4.82
2022-10-20T04:05:26.323Z,4.81
2022-10-20T04:10:28.332Z,4.75
2022-10-20T04:15:30.225Z,4.75
2022-10-20T04:20:32.215Z,4.69
2022-10-20T04:25:34.340Z,4.63
2022-10-20T04:30:38.951Z,4.66
2022-10-20T04:35:41.167Z,4.64
2022-10-20T04:40:43.306Z,4.56
2022-10-20T04:45:45.164Z,4.56
2022-10-20T04:50:47.101Z,4.50
2022-10-20T04:55:54.965Z,4.49
2022-10-20T05:01:08.688Z,4.46
2022-10-20T05:06:21.265Z,4.38
2022-10-20T05:11:25.136Z,4.34
2022-10-20T05:16:27.524Z,4.38
2022-10-20T05:21:30.948Z,4.43
2022-10-20T05:26:37.091Z,4.41
2022-10-20T05:31:42.225Z,4.43
2022-10-20T05:36:50.386Z,4.32
2022-10-20T05:41:58.350Z,4.50
2022-10-20T05:47:00.277Z,4.47
2022-10-20T05:52:08.510Z,4.58
2022-10-20T05:57:16.655Z,4.63
2022-10-20T06:02:18.681Z,4.54
2022-10-20T06:07:20.582Z,4.71
2022-10-20T06:12:22.506Z,5.00
2022-10-20T06:17:24.386Z,5.40
2022-10-20T06:22:26.489Z,5.65
2022-10-20T06:27:28.579Z,5.84
2022-10-20T06:32:30.786Z,5.98
2022-10-20T06:37:33.882Z,6.16
2022-10-20T06:42:36.014Z,6.29
2022-10-20T06:47:38.408Z,6.36
2022-10-20T06:52:40.520Z,6.56
2022-10-20T06:57:42.584Z,6.58
2022-10-20T07:02:44.743Z,6.79
2022-10-20T07:07:46.712Z,7.05
2022-10-20T07:12:48.609Z,7.61
2022-10-20T07:17:50.541Z,7.77
2022-10-20T07:22:52.439Z,7.65
2022-10-20T07:27:54.742Z,7.92
2022-10-20T07:32:56.796Z,8.01
2022-10-20T07:37:58.778Z,8.68
2022-10-20T07:43:00.681Z,9.05
2022-10-20T07:48:04.473Z,9.16
2022-10-20T07:53:06.499Z,9.41
2022-10-20T07:58:08.492Z,9.56
2022-10-20T08:03:10.513Z,9.76
2022-10-20T08:08:12.709Z,10.00
2022-10-20T08:13:15.002Z,10.06
2022-10-20T08:18:17.355Z,10.53
2022-10-20T08:23:19.470Z,10.73
2022-10-20T08:28:24.719Z,10.84
2022-10-20T08:33:28.297Z,11.09
2022-10-20T08:38:30.316Z,11.30
2022-10-20T08:43:36.557Z,10.97
2022-10-20T08:48:39.101Z,11.30
2022-10-20T08:53:41.030Z,11.55
2022-10-20T08:58:44.781Z,11.67
2022-10-20T09:03:48.447Z,11.79
2022-10-20T09:08:51.780Z,11.52
2022-10-20T09:13:54.712Z,11.42
2022-10-20T09:18:58.819Z,11.66
2022-10-20T09:24:10.006Z,11.44
2022-10-20T09:29:35.744Z,11.79
2022-10-20T09:34:38.036Z,11.89
2022-10-20T09:39:45.818Z,11.60
2022-10-20T09:44:58.462Z,11.11
2022-10-20T09:50:06.764Z,10.84
2022-10-20T09:55:30.704Z,10.58
2022-10-20T10:00:37.587Z,10.53
2022-10-20T10:05:39.789Z,10.72
2022-10-20T10:10:45.258Z,10.78
2022-10-20T10:15:47.413Z,11.11
2022-10-20T10:21:02.582Z,11.03
2022-10-20T10:26:34.665Z,11.60
2022-10-20T10:31:50.095Z,11.88
2022-10-20T10:36:52.209Z,12.03
2022-10-20T10:42:32.354Z,12.11
2022-10-20T10:47:46.774Z,12.16
2022-10-20T10:53:34.651Z,12.34
2022-10-20T10:59:02.025Z,12.72
2022-10-20T11:04:31.852Z,13.45
2022-10-20T11:10:01.144Z,14.22
2022-10-20T11:15:39.396Z,14.52
2022-10-20T11:20:59.872Z,14.52
2022-10-20T11:26:28.203Z,14.20
2022-10-20T11:31:54.747Z,13.95
2022-10-20T11:37:19.846Z,13.34
2022-10-20T11:43:00.193Z,13.11
2022-10-20T11:48:12.289Z,13.15
2022-10-20T11:53:35.452Z,13.49
2022-10-20T11:58:58.549Z,13.54
2022-10-20T12:04:12.521Z,13.90
2022-10-20T12:09:33.069Z,13.86
2022-10-20T12:14:46.465Z,14.14
2022-10-20T12:19:52.478Z,14.08
2022-10-20T12:24:54.564Z,14.74
2022-10-20T12:30:02.589Z,15.01
2022-10-20T12:35:10.685Z,14.96
2022-10-20T12:40:12.760Z,15.10
2022-10-20T12:45:20.790Z,15.16
2022-10-20T12:50:39.429Z,15.25
2022-10-20T12:55:49.795Z,15.14
2022-10-20T13:00:58.635Z,14.91
2022-10-20T13:06:01.734Z,14.71
2022-10-20T13:11:37.839Z,14.36
2022-10-20T13:16:46.773Z,14.24
2022-10-20T13:21:50.989Z,13.77
2022-10-20T13:26:57.517Z,13.51
2022-10-20T13:32:21.268Z,13.76
2022-10-20T13:37:56.325Z,14.00
2022-10-20T13:43:31.354Z,14.25
2022-10-20T13:48:45.719Z,14.33
2022-10-20T13:53:51.256Z,14.22
2022-10-20T13:59:07.145Z,14.19
2022-10-20T14:04:37.432Z,14.11
2022-10-20T14:09:45.292Z,13.98
2022-10-20T14:14:49.844Z,13.94
2022-10-20T14:20:07.913Z,13.78
2022-10-20T14:25:10.804Z,13.70
2022-10-20T14:30:18.062Z,13.66
2022-10-20T14:35:28.904Z,13.62
2022-10-20T14:40:36.364Z,13.54
2022-10-20T14:45:38.742Z,13.45
2022-10-20T14:50:41.127Z,13.44
2022-10-20T14:55:43.185Z,13.38
2022-10-20T15:00:45.321Z,13.27
2022-10-20T15:05:52.523Z,13.04
2022-10-20T15:10:55.159Z,12.94
2022-10-20T15:16:02.580Z,12.91
2022-10-20T15:21:05.061Z,12.70
2022-10-20T15:26:14.329Z,12.60
2022-10-20T15:31:20.828Z,12.47
2022-10-20T15:36:33.513Z,12.51
2022-10-20T15:41:36.839Z,12.40
2022-10-20T15:46:39.223Z,12.37
2022-10-20T15:51:44.180Z,12.23
2022-10-20T15:56:46.192Z,12.03
2022-10-20T16:01:48.372Z,11.87
2022-10-20T16:06:57.759Z,11.70
2022-10-20T16:12:01.273Z,11.54
2022-10-20T16:17:03.353Z,11.34
2022-10-20T16:22:05.315Z,11.20
2022-10-20T16:27:07.572Z,10.97
2022-10-20T16:32:09.606Z,10.86
2022-10-20T16:37:11.791Z,10.68
2022-10-20T16:42:14.038Z,10.49
2022-10-20T16:47:16.278Z,10.36
2022-10-20T16:52:18.583Z,10.03
2022-10-20T16:57:20.724Z,9.89
2022-10-20T17:02:23.329Z,9.64
2022-10-20T17:07:25.389Z,9.38
2022-10-20T17:12:27.559Z,9.08
2022-10-20T17:17:29.621Z,8.88
2022-10-20T17:22:32.650Z,8.66
2022-10-20T17:27:35.105Z,8.37
2022-10-20T17:32:37.631Z,8.27
2022-10-20T17:37:40.080Z,8.12
2022-10-20T17:42:42.152Z,7.90
2022-10-20T17:47:44.580Z,7.82
2022-10-20T17:52:46.858Z,7.74
2022-10-20T17:57:50.084Z,7.58
2022-10-20T18:02:52.214Z,7.50
2022-10-20T18:07:54.508Z,7.34
2022-10-20T18:12:56.572Z,7.26
2022-10-20T18:17:58.660Z,7.01
2022-10-20T18:23:00.904Z,7.01
2022-10-20T18:28:02.957Z,6.96
2022-10-20T18:33:04.945Z,6.96
2022-10-20T18:38:07.058Z,6.85
2022-10-20T18:43:09.072Z,6.75
2022-10-20T18:48:11.242Z,6.71
2022-10-20T18:53:14.371Z,6.65
2022-10-20T18:58:16.381Z,6.53
2022-10-20T19:03:18.576Z,6.46
2022-10-20T19:08:20.555Z,6.43
2022-10-20T19:13:25.959Z,6.38
2022-10-20T19:18:29.648Z,6.30
2022-10-20T19:23:32.301Z,6.26
2022-10-20T19:28:37.675Z,6.16
2022-10-20T19:33:40.308Z,6.06
2022-10-20T19:38:43.103Z,6.00
2022-10-20T19:43:45.401Z,5.99
2022-10-20T19:48:48.358Z,5.95
2022-10-20T19:53:50.399Z,6.00
2022-10-20T19:58:53.129Z,5.95
2022-10-20T20:03:57.592Z,5.92
2022-10-20T20:09:02.175Z,5.97
2022-10-20T20:14:16.708Z,5.97
2022-10-20T20:19:18.709Z,5.85
2022-10-20T20:24:20.885Z,5.95
2022-10-20T20:29:22.863Z,5.89
2022-10-20T20:34:24.902Z,5.90
2022-10-20T20:39:27.173Z,5.83
2022-10-20T20:44:29.379Z,5.90
2022-10-20T20:49:31.546Z,5.94
2022-10-20T20:54:33.690Z,5.90
2022-10-20T20:59:35.621Z,5.92
2022-10-20T21:04:37.552Z,6.00
2022-10-20T21:09:39.548Z,5.90
2022-10-20T21:14:41.651Z,5.92
2022-10-20T21:19:43.652Z,5.83
2022-10-20T21:24:45.602Z,5.85
2022-10-20T21:29:48.514Z,5.75
2022-10-20T21:34:50.420Z,5.74
2022-10-20T21:39:52.440Z,5.66
2022-10-20T21:44:54.381Z,5.50
2022-10-20T21:49:56.584Z,5.40
2022-10-20T21:54:58.500Z,5.35
2022-10-20T22:00:00.570Z,5.39
2022-10-20T22:05:02.794Z,5.35
2022-10-20T22:10:05.364Z,5.24
2022-10-20T22:15:07.811Z,5.22
2022-10-20T22:20:10.420Z,5.20
2022-10-20T22:25:12.543Z,5.11
2022-10-20T22:30:14.557Z,5.11
2022-10-20T22:35:16.668Z,5.11
2022-10-20T22:40:18.797Z,4.98
2022-10-20T22:45:20.814Z,5.00
2022-10-20T22:50:23.132Z,5.00
2022-10-20T22:55:25.075Z,4.91
2022-10-20T23:00:27.106Z,4.87
2022-10-20T23:05:29.057Z,4.90
2022-10-20T23:10:31.139Z,4.86
2022-10-20T23:15:33.117Z,4.78
2022-10-20T23:20:35.110Z,4.54
2022-10-20T23:25:40.580Z,4.73
2022-10-20T23:30:42.598Z,4.53
2022-10-20T23:35:47.099Z,4.50
2022-10-20T23:40:49.253Z,4.58
2022-10-20T23:45:51.301Z,4.58
2022-10-20T23:50:53.974Z,4.56
2022-10-20T23:55:56.007Z,4.57
